createdAt,value
2022-10-15T00:03:16.739Z,17.20
2022-10-15T00:06:46.452Z,17.30
2022-10-15T00:10:10.397Z,17.30
2022-10-15T00:13:34.785Z,17.30
2022-10-15T00:16:59.600Z,17.30
2022-10-15T00:20:23.305Z,17.40
2022-10-15T00:23:47.970Z,17.50
2022-10-15T00:27:11.453Z,17.40
2022-10-15T00:30:35.416Z,17.60
2022-10-15T00:34:03.080Z,17.40
2022-10-15T00:37:26.903Z,17.50
2022-10-15T00:40:50.315Z,17.40
2022-10-15T00:44:51.159Z,17.40
2022-10-15T00:48:14.641Z,17.40
2022-10-15T00:51:48.450Z,17.50
2022-10-15T00:55:18.425Z,17.40
2022-10-15T00:58:42.216Z,17.40
2022-10-15T01:02:07.813Z,17.50
2022-10-15T01:05:32.149Z,17.50
2022-10-15T01:08:57.968Z,17.50
2022-10-15T01:12:40.385Z,17.50
2022-10-15T01:20:06.371Z,17.50
2022-10-15T01:24:43.913Z,17.50
2022-10-15T01:28:24.686Z,17.50
2022-10-15T01:32:04.190Z,17.50
2022-10-15T01:35:38.415Z,17.50
2022-10-15T01:39:13.566Z,17.50
2022-10-15T01:42:45.016Z,17.50
2022-10-15T01:46:18.177Z,17.50
2022-10-15T01:50:01.896Z,17.50
2022-10-15T01:53:30.132Z,17.60
2022-10-15T01:56:56.128Z,17.70
2022-10-15T02:00:19.948Z,17.50
2022-10-15T02:03:48.781Z,17.50
2022-10-15T02:07:26.488Z,17.60
2022-10-15T02:11:00.303Z,17.50
2022-10-15T02:14:35.564Z,17.60
2022-10-15T02:18:11.153Z,17.50
2022-10-15T02:21:43.663Z,17.60
2022-10-15T02:25:16.554Z,17.60
2022-10-15T02:28:48.006Z,17.60
2022-10-15T02:32:15.395Z,17.70
2022-10-15T02:35:39.465Z,17.60
2022-10-15T02:39:06.512Z,17.60
2022-10-15T02:42:32.051Z,17.60
2022-10-15T02:45:55.739Z,17.60
2022-10-15T02:49:19.523Z,17.60
2022-10-15T02:52:44.955Z,17.60
2022-10-15T02:56:08.802Z,17.60
2022-10-15T02:59:33.653Z,17.60
2022-10-15T03:02:57.170Z,17.60
2022-10-15T03:06:20.764Z,17.60
2022-10-15T03:09:45.237Z,17.60
2022-10-15T03:13:10.751Z,17.70
2022-10-15T03:16:42.911Z,17.70
2022-10-15T03:20:08.727Z,17.70
2022-10-15T03:23:34.801Z,17.70
2022-10-15T03:27:10.769Z,17.70
2022-10-15T03:30:34.444Z,17.70
2022-10-15T03:33:59.451Z,17.80
2022-10-15T03:37:23.758Z,17.80
2022-10-15T03:40:47.958Z,17.80
2022-10-15T03:44:26.705Z,17.90
2022-10-15T03:48:03.700Z,17.80
2022-10-15T03:51:31.770Z,17.80
2022-10-15T03:55:01.825Z,17.80
2022-10-15T03:58:25.804Z,17.90
2022-10-15T04:01:53.184Z,17.90
2022-10-15T04:05:16.859Z,17.90
2022-10-15T04:08:49.097Z,18.00
2022-10-15T04:12:21.591Z,18.10
2022-10-15T04:15:45.512Z,18.00
2022-10-15T04:19:11.287Z,18.00
2022-10-15T04:22:37.889Z,18.00
2022-10-15T04:26:06.216Z,18.00
2022-10-15T04:29:29.990Z,18.00
2022-10-15T04:33:05.915Z,18.00
2022-10-15T04:36:29.687Z,18.00
2022-10-15T04:40:01.333Z,18.00
2022-10-15T04:43:26.616Z,18.10
2022-10-15T04:46:55.186Z,18.10
2022-10-15T04:50:30.597Z,18.10
2022-10-15T04:54:15.261Z,18.10
2022-10-15T04:57:55.694Z,18.10
2022-10-15T05:01:26.229Z,18.20
2022-10-15T05:04:55.464Z,18.30
2022-10-15T05:08:21.018Z,18.30
2022-10-15T05:12:06.897Z,18.10
2022-10-15T05:15:31.466Z,18.10
2022-10-15T05:18:59.174Z,18.10
2022-10-15T05:22:23.333Z,18.10
2022-10-15T05:25:53.286Z,18.10
2022-10-15T05:29:20.318Z,18.20
2022-10-15T05:32:43.888Z,18.20
2022-10-15T05:36:17.352Z,18.20
2022-10-15T05:39:42.524Z,18.20
2022-10-15T05:43:07.336Z,18.10
2022-10-15T05:46:30.812Z,18.10
2022-10-15T05:49:54.643Z,18.10
2022-10-15T05:53:25.243Z,18.10
2022-10-15T05:56:52.572Z,18.10
2022-10-15T06:00:17.441Z,18.20
2022-10-15T06:03:49.066Z,18.10
2022-10-15T06:07:12.465Z,18.10
2022-10-15T06:10:39.778Z,18.10
2022-10-15T06:14:03.195Z,18.10
2022-10-15T06:17:26.945Z,18.10
2022-10-15T06:20:53.534Z,18.10
2022-10-15T06:24:16.915Z,18.10
2022-10-15T06:27:41.633Z,18.10
2022-10-15T06:31:06.402Z,18.10
2022-10-15T06:34:29.796Z,18.10
2022-10-15T06:37:53.433Z,18.10
2022-10-15T06:41:17.493Z,18.10
2022-10-15T06:44:42.572Z,18.10
2022-10-15T06:48:08.376Z,18.00
2022-10-15T06:51:31.739Z,18.10
2022-10-15T06:54:55.183Z,18.00
2022-10-15T06:58:18.593Z,18.00
2022-10-15T07:01:43.453Z,18.30
2022-10-15T07:05:08.846Z,18.00
2022-10-15T07:08:32.423Z,18.00
2022-10-15T07:11:56.297Z,18.00
2022-10-15T07:15:20.452Z,18.00
2022-10-15T07:18:45.468Z,18.00
2022-10-15T07:22:08.916Z,18.00
2022-10-15T07:25:33.160Z,18.10
2022-10-15T07:29:01.758Z,18.10
2022-10-15T07:32:25.963Z,18.10
2022-10-15T07:35:53.245Z,18.10
2022-10-15T07:39:20.880Z,18.10
2022-10-15T07:42:44.584Z,18.10
2022-10-15T07:46:08.031Z,18.20
2022-10-15T07:49:31.801Z,18.20
2022-10-15T07:52:56.808Z,18.30
2022-10-15T07:56:20.255Z,18.40
2022-10-15T07:59:43.720Z,18.40
2022-10-15T08:03:07.257Z,18.50
2022-10-15T08:06:32.447Z,18.60
2022-10-15T08:09:57.305Z,18.70
2022-10-15T08:13:23.504Z,18.60
2022-10-15T08:16:47.254Z,18.60
2022-10-15T08:20:12.344Z,18.70
2022-10-15T08:23:36.152Z,18.60
2022-10-15T08:27:01.011Z,18.60
2022-10-15T08:30:24.507Z,18.60
2022-10-15T08:33:48.373Z,18.70
2022-10-15T08:37:12.078Z,18.70
2022-10-15T08:40:35.709Z,18.80
2022-10-15T08:44:02.142Z,19.00
2022-10-15T08:47:35.632Z,19.20
2022-10-15T08:51:04.802Z,19.30
2022-10-15T08:54:28.970Z,19.70
2022-10-15T08:57:59.722Z,19.50
2022-10-15T09:01:33.131Z,19.60
2022-10-15T09:05:16.845Z,19.50
2022-10-15T09:08:53.817Z,19.60
2022-10-15T09:12:42.813Z,19.60
2022-10-15T09:16:15.496Z,19.50
2022-10-15T09:19:40.836Z,19.60
2022-10-15T09:23:04.762Z,19.70
2022-10-15T09:26:40.797Z,19.80
2022-10-15T09:30:14.640Z,19.90
2022-10-15T09:33:46.468Z,19.80
2022-10-15T09:37:20.639Z,19.90
2022-10-15T09:41:16.542Z,20.00
2022-10-15T09:44:44.050Z,20.00
2022-10-15T09:48:19.499Z,20.10
2022-10-15T09:51:54.799Z,20.10
2022-10-15T09:55:36.878Z,20.20
2022-10-15T09:59:01.961Z,20.30
2022-10-15T10:02:27.672Z,20.50
2022-10-15T10:05:52.647Z,20.50
2022-10-15T10:09:21.901Z,20.90
2022-10-15T10:12:46.695Z,21.40
2022-10-15T10:16:14.259Z,22.00
2022-10-15T10:19:39.186Z,22.50
2022-10-15T10:23:22.208Z,22.90
2022-10-15T10:26:46.542Z,23.30
2022-10-15T10:30:15.640Z,23.90
2022-10-15T10:33:47.676Z,24.50
2022-10-15T10:37:11.460Z,25.20
2022-10-15T10:40:37.500Z,25.80
2022-10-15T10:44:21.753Z,26.30
2022-10-15T10:47:47.396Z,26.60
2022-10-15T10:51:18.242Z,26.90
2022-10-15T10:58:20.148Z,27.30
2022-10-15T11:05:18.022Z,28.00
2022-10-15T11:08:57.911Z,28.20
2022-10-15T11:12:44.416Z,28.10
2022-10-15T11:16:17.203Z,27.90
2022-10-15T11:20:13.161Z,27.60
2022-10-15T11:24:06.028Z,27.30
2022-10-15T11:27:57.515Z,27.10
2022-10-15T11:31:34.319Z,26.80
2022-10-15T11:35:40.862Z,26.50
2022-10-15T11:39:34.709Z,26.20
2022-10-15T11:43:03.229Z,25.80
2022-10-15T11:46:34.594Z,25.40
2022-10-15T11:50:19.276Z,25.10
2022-10-15T11:54:18.406Z,24.80
2022-10-15T11:57:46.381Z,24.60
2022-10-15T12:01:20.205Z,24.40
2022-10-15T12:04:51.033Z,24.20
2022-10-15T12:08:16.141Z,24.10
2022-10-15T12:11:51.829Z,24.10
2022-10-15T12:15:29.637Z,24.00
2022-10-15T12:19:06.075Z,24.40
2022-10-15T12:22:39.982Z,23.90
2022-10-15T12:29:43.537Z,23.60
2022-10-15T12:33:27.636Z,23.40
2022-10-15T12:37:02.716Z,23.30
2022-10-15T12:40:31.837Z,23.10
2022-10-15T12:44:08.227Z,23.00
2022-10-15T12:47:55.839Z,22.80
2022-10-15T12:51:40.625Z,22.70
2022-10-15T12:55:28.719Z,22.50
2022-10-15T12:58:54.252Z,22.40
2022-10-15T13:02:38.856Z,22.40
2022-10-15T13:06:33.730Z,22.20
2022-10-15T13:09:57.421Z,22.10
2022-10-15T13:13:27.361Z,22.10
2022-10-15T13:16:51.584Z,22.00
2022-10-15T13:20:35.700Z,22.00
2022-10-15T13:24:00.533Z,21.90
2022-10-15T13:27:26.653Z,21.90
2022-10-15T13:30:51.324Z,21.90
2022-10-15T13:34:26.337Z,21.80
2022-10-15T13:37:50.656Z,21.60
2022-10-15T13:41:15.582Z,21.60
2022-10-15T13:44:39.304Z,21.40
2022-10-15T13:48:02.956Z,21.30
2022-10-15T13:51:34.253Z,21.20
2022-10-15T13:54:57.928Z,21.10
2022-10-15T13:58:27.700Z,21.00
2022-10-15T14:02:00.824Z,21.00
2022-10-15T14:05:25.546Z,20.90
2022-10-15T14:08:52.629Z,20.90
2022-10-15T14:12:16.322Z,20.90
2022-10-15T14:15:45.452Z,20.90
2022-10-15T14:19:17.453Z,20.80
2022-10-15T14:22:40.947Z,20.70
2022-10-15T14:26:06.350Z,20.70
2022-10-15T14:29:38.144Z,20.70
2022-10-15T14:33:03.351Z,20.70
2022-10-15T14:36:31.211Z,20.70
2022-10-15T14:40:12.435Z,20.90
2022-10-15T14:43:38.053Z,20.70
2022-10-15T14:47:04.600Z,20.70
2022-10-15T14:50:34.053Z,20.70
2022-10-15T14:53:57.605Z,20.80
2022-10-15T14:57:26.865Z,20.80
2022-10-15T15:00:58.436Z,20.80
2022-10-15T15:04:41.242Z,20.70
2022-10-15T15:08:10.956Z,20.80
2022-10-15T15:11:34.633Z,20.70
2022-10-15T15:14:58.652Z,20.80
2022-10-15T15:18:22.558Z,20.70
2022-10-15T15:21:46.724Z,20.80
2022-10-15T15:25:19.696Z,20.80
2022-10-15T15:28:43.569Z,20.80
2022-10-15T15:32:07.222Z,20.90
2022-10-15T15:35:38.810Z,20.90
2022-10-15T15:39:02.888Z,20.90
2022-10-15T15:42:28.198Z,20.90
2022-10-15T15:45:51.894Z,21.00
2022-10-15T15:49:15.349Z,21.00
2022-10-15T15:52:41.773Z,21.00
2022-10-15T15:56:07.943Z,21.10
2022-10-15T15:59:32.775Z,20.90
2022-10-15T16:02:57.955Z,20.90
2022-10-15T16:06:21.805Z,21.00
2022-10-15T16:09:45.309Z,20.80
2022-10-15T16:13:08.787Z,21.30
2022-10-15T16:16:33.661Z,20.80
2022-10-15T16:19:57.188Z,20.70
2022-10-15T16:23:20.832Z,20.60
2022-10-15T16:26:44.350Z,20.50
2022-10-15T16:30:09.080Z,20.50
2022-10-15T16:33:33.909Z,20.40
2022-10-15T16:36:57.377Z,20.30
2022-10-15T16:40:21.232Z,20.30
2022-10-15T16:43:44.699Z,20.20
2022-10-15T16:47:08.216Z,20.10
2022-10-15T16:50:33.054Z,20.00
2022-10-15T16:53:56.758Z,20.00
2022-10-15T16:57:20.231Z,19.90
2022-10-15T17:00:44.754Z,19.90
2022-10-15T17:04:08.396Z,19.90
2022-10-15T17:07:33.367Z,20.20
2022-10-15T17:10:57.989Z,19.90
2022-10-15T17:14:21.499Z,19.90
2022-10-15T17:17:45.310Z,19.90
2022-10-15T17:21:15.407Z,19.90
2022-10-15T17:24:42.208Z,19.90
2022-10-15T17:28:05.978Z,19.80
2022-10-15T17:31:29.664Z,20.60
2022-10-15T17:34:53.379Z,19.80
2022-10-15T17:38:20.474Z,19.80
2022-10-15T17:41:47.945Z,19.80
2022-10-15T17:45:12.295Z,20.20
2022-10-15T17:48:39.223Z,19.80
2022-10-15T17:52:02.820Z,19.80
2022-10-15T17:55:28.418Z,19.90
2022-10-15T17:58:54.618Z,19.80
2022-10-15T18:02:20.722Z,20.10
2022-10-15T18:05:44.880Z,19.80
2022-10-15T18:09:08.392Z,19.80
2022-10-15T18:12:32.319Z,19.90
2022-10-15T18:15:58.172Z,19.90
2022-10-15T18:19:21.883Z,19.90
2022-10-15T18:22:45.287Z,20.00
2022-10-15T18:26:14.656Z,20.00
2022-10-15T18:29:40.735Z,20.00
2022-10-15T18:33:05.879Z,20.00
2022-10-15T18:36:31.783Z,20.00
2022-10-15T18:39:55.358Z,20.00
2022-10-15T18:43:19.594Z,20.00
2022-10-15T18:46:44.957Z,20.00
2022-10-15T18:50:11.005Z,20.00
2022-10-15T18:53:37.479Z,20.00
2022-10-15T18:57:00.891Z,20.00
2022-10-15T19:00:24.349Z,20.00
2022-10-15T19:03:49.864Z,20.00
2022-10-15T19:07:14.788Z,20.00
2022-10-15T19:10:38.267Z,20.10
2022-10-15T19:14:02.857Z,20.10
2022-10-15T19:17:26.490Z,20.10
2022-10-15T19:20:50.202Z,20.10
2022-10-15T19:24:16.799Z,20.20
2022-10-15T19:27:40.207Z,20.10
2022-10-15T19:31:07.355Z,20.10
2022-10-15T19:34:34.495Z,20.10
2022-10-15T22:18:32.840Z,19.60
2022-10-15T22:21:56.198Z,19.60
